sensor_id;sensor_type;location;lat;lon;timestamp;temperature;humidity
909;DHT22;441;51.192;6.788;2023-03-08T00:00:47;20.40;45.00
909;DHT22;441;51.192;6.788;2023-03-08T00:03:15;20.40;45.10
909;DHT22;441;51.192;6.788;2023-03-08T00:05:42;20.30;45.00
909;DHT22;441;51.192;6.788;2023-03-08T00:08:09;20.30;45.00
909;DHT22;441;51.192;6.788;2023-03-08T00:10:36;20.20;44.90
909;DHT22;441;51.192;6.788;2023-03-08T00:13:03;20.20;45.00
909;DHT22;441;51.192;6.788;2023-03-08T00:15:30;20.20;45.00
909;DHT22;441;51.192;6.788;2023-03-08T00:17:58;20.20;45.00
909;DHT22;441;51.192;6.788;2023-03-08T00:20:25;20.20;45.00
909;DHT22;441;51.192;6.788;2023-03-08T00:22:52;20.20;45.10
909;DHT22;441;51.192;6.788;2023-03-08T00:25:19;20.10;45.00
909;DHT22;441;51.192;6.788;2023-03-08T00:27:46;20.10;45.00
909;DHT22;441;51.192;6.788;2023-03-08T00:30:13;20.10;45.10
909;DHT22;441;51.192;6.788;2023-03-08T00:32:41;20.10;45.20
909;DHT22;441;51.192;6.788;2023-03-08T00:35:09;20.10;45.70
909;DHT22;441;51.192;6.788;2023-03-08T00:37:36;20.00;45.10
909;DHT22;441;51.192;6.788;2023-03-08T00:40:04;20.00;45.20
909;DHT22;441;51.192;6.788;2023-03-08T00:42:31;20.00;45.20
909;DHT22;441;51.192;6.788;2023-03-08T00:44:58;19.90;45.20
909;DHT22;441;51.192;6.788;2023-03-08T00:47:25;19.90;45.30
909;DHT22;441;51.192;6.788;2023-03-08T00:49:51;19.90;45.20
909;DHT22;441;51.192;6.788;2023-03-08T00:52:20;19.90;45.20
909;DHT22;441;51.192;6.788;2023-03-08T00:54:47;19.90;45.20
909;DHT22;441;51.192;6.788;2023-03-08T00:57:13;19.90;45.30
909;DHT22;441;51.192;6.788;2023-03-08T00:59:40;19.80;45.20
909;DHT22;441;51.192;6.788;2023-03-08T01:02:07;19.80;45.20
909;DHT22;441;51.192;6.788;2023-03-08T01:04:34;19.80;45.30
909;DHT22;441;51.192;6.788;2023-03-08T01:07:01;19.80;45.30
909;DHT22;441;51.192;6.788;2023-03-08T01:09:29;19.70;45.20
909;DHT22;441;51.192;6.788;2023-03-08T01:11:56;19.70;45.20
909;DHT22;441;51.192;6.788;2023-03-08T01:14:23;19.70;45.20
909;DHT22;441;51.192;6.788;2023-03-08T01:16:50;19.70;45.30
909;DHT22;441;51.192;6.788;2023-03-08T01:19:17;19.70;45.30
909;DHT22;441;51.192;6.788;2023-03-08T01:21:44;19.70;45.40
909;DHT22;441;51.192;6.788;2023-03-08T01:24:11;19.60;45.30
909;DHT22;441;51.192;6.788;2023-03-08T01:26:39;19.60;45.30
909;DHT22;441;51.192;6.788;2023-03-08T01:29:06;19.60;45.30
909;DHT22;441;51.192;6.788;2023-03-08T01:31:33;19.60;45.30
909;DHT22;441;51.192;6.788;2023-03-08T01:33:59;19.60;45.30
909;DHT22;441;51.192;6.788;2023-03-08T01:36:27;19.60;45.30
909;DHT22;441;51.192;6.788;2023-03-08T01:38:54;19.60;45.30
909;DHT22;441;51.192;6.788;2023-03-08T01:41:24;19.50;45.30
909;DHT22;441;51.192;6.788;2023-03-08T01:43:53;19.50;45.30
909;DHT22;441;51.192;6.788;2023-03-08T01:46:25;19.50;45.20
909;DHT22;441;51.192;6.788;2023-03-08T01:48:58;19.50;45.30
909;DHT22;441;51.192;6.788;2023-03-08T01:51:30;19.50;45.30
909;DHT22;441;51.192;6.788;2023-03-08T01:54:03;19.50;45.30
909;DHT22;441;51.192;6.788;2023-03-08T01:56:31;19.40;45.30
909;DHT22;441;51.192;6.788;2023-03-08T01:59:00;19.40;45.30
909;DHT22;441;51.192;6.788;2023-03-08T02:01:27;19.40;45.30
909;DHT22;441;51.192;6.788;2023-03-08T02:03:55;19.40;45.30
909;DHT22;441;51.192;6.788;2023-03-08T02:06:21;19.40;45.30
909;DHT22;441;51.192;6.788;2023-03-08T02:08:49;19.30;45.30
909;DHT22;441;51.192;6.788;2023-03-08T02:11:16;19.30;45.30
909;DHT22;441;51.192;6.788;2023-03-08T02:13:44;19.30;45.40
909;DHT22;441;51.192;6.788;2023-03-08T02:16:14;19.30;45.40
909;DHT22;441;51.192;6.788;2023-03-08T02:18:53;19.30;45.40
909;DHT22;441;51.192;6.788;2023-03-08T02:21:20;19.30;45.30
909;DHT22;441;51.192;6.788;2023-03-08T02:23:49;19.30;45.30
909;DHT22;441;51.192;6.788;2023-03-08T02:26:16;19.30;45.40
909;DHT22;441;51.192;6.788;2023-03-08T02:28:43;19.20;45.30
909;DHT22;441;51.192;6.788;2023-03-08T02:31:10;19.20;45.30
909;DHT22;441;51.192;6.788;2023-03-08T02:33:37;19.20;45.40
909;DHT22;441;51.192;6.788;2023-03-08T02:36:06;19.20;45.40
909;DHT22;441;51.192;6.788;2023-03-08T02:38:35;19.20;45.40
909;DHT22;441;51.192;6.788;2023-03-08T02:41:03;19.20;45.40
909;DHT22;441;51.192;6.788;2023-03-08T02:43:30;19.10;45.30
909;DHT22;441;51.192;6.788;2023-03-08T02:45:57;19.10;45.40
909;DHT22;441;51.192;6.788;2023-03-08T02:48:24;19.10;45.40
909;DHT22;441;51.192;6.788;2023-03-08T02:50:51;19.10;45.40
909;DHT22;441;51.192;6.788;2023-03-08T02:53:18;19.10;45.40
909;DHT22;441;51.192;6.788;2023-03-08T02:55:44;19.10;45.40
909;DHT22;441;51.192;6.788;2023-03-08T02:58:13;19.10;45.40
909;DHT22;441;51.192;6.788;2023-03-08T03:00:39;19.00;45.30
909;DHT22;441;51.192;6.788;2023-03-08T03:03:06;19.10;45.40
909;DHT22;441;51.192;6.788;2023-03-08T03:05:33;19.00;45.40
909;DHT22;441;51.192;6.788;2023-03-08T03:08:00;19.00;45.40
909;DHT22;441;51.192;6.788;2023-03-08T03:10:27;19.00;45.40
909;DHT22;441;51.192;6.788;2023-03-08T03:12:54;19.00;45.50
909;DHT22;441;51.192;6.788;2023-03-08T03:15:22;19.00;45.50
909;DHT22;441;51.192;6.788;2023-03-08T03:17:49;19.00;45.40
909;DHT22;441;51.192;6.788;2023-03-08T03:20:16;18.90;45.30
909;DHT22;441;51.192;6.788;2023-03-08T03:22:43;18.90;45.30
909;DHT22;441;51.192;6.788;2023-03-08T03:25:11;18.90;45.30
909;DHT22;441;51.192;6.788;2023-03-08T03:27:38;18.90;45.30
909;DHT22;441;51.192;6.788;2023-03-08T03:30:07;18.90;45.30
909;DHT22;441;51.192;6.788;2023-03-08T03:32:36;18.90;45.30
909;DHT22;441;51.192;6.788;2023-03-08T03:35:03;18.90;45.30
909;DHT22;441;51.192;6.788;2023-03-08T03:37:30;18.90;45.40
909;DHT22;441;51.192;6.788;2023-03-08T03:39:59;18.80;45.30
909;DHT22;441;51.192;6.788;2023-03-08T03:42:26;18.90;45.40
909;DHT22;441;51.192;6.788;2023-03-08T03:44:52;18.80;45.30
909;DHT22;441;51.192;6.788;2023-03-08T03:47:19;18.80;45.30
909;DHT22;441;51.192;6.788;2023-03-08T03:49:48;18.80;45.90
909;DHT22;441;51.192;6.788;2023-03-08T03:52:14;18.80;45.40
909;DHT22;441;51.192;6.788;2023-03-08T03:54:41;18.80;45.30
909;DHT22;441;51.192;6.788;2023-03-08T03:57:08;18.80;45.30
909;DHT22;441;51.192;6.788;2023-03-08T03:59:35;18.80;45.40
909;DHT22;441;51.192;6.788;2023-03-08T04:02:02;18.80;45.30
909;DHT22;441;51.192;6.788;2023-03-08T04:04:29;18.80;45.40
909;DHT22;441;51.192;6.788;2023-03-08T04:06:57;18.80;45.40
909;DHT22;441;51.192;6.788;2023-03-08T04:09:24;18.70;45.30
909;DHT22;441;51.192;6.788;2023-03-08T04:11:51;18.70;45.30
909;DHT22;441;51.192;6.788;2023-03-08T04:14:18;18.70;45.30
909;DHT22;441;51.192;6.788;2023-03-08T04:16:45;18.70;45.30
909;DHT22;441;51.192;6.788;2023-03-08T04:19:12;18.70;45.30
909;DHT22;441;51.192;6.788;2023-03-08T04:21:39;18.70;45.30
909;DHT22;441;51.192;6.788;2023-03-08T04:24:08;18.70;45.30
909;DHT22;441;51.192;6.788;2023-03-08T04:26:35;18.70;45.40
909;DHT22;441;51.192;6.788;2023-03-08T04:29:02;18.70;45.50
909;DHT22;441;51.192;6.788;2023-03-08T04:31:31;18.70;45.50
909;DHT22;441;51.192;6.788;2023-03-08T04:33:59;18.70;45.50
909;DHT22;441;51.192;6.788;2023-03-08T04:36:26;18.70;45.60
909;DHT22;441;51.192;6.788;2023-03-08T04:38:53;18.70;45.60
909;DHT22;441;51.192;6.788;2023-03-08T04:41:22;18.70;45.60
909;DHT22;441;51.192;6.788;2023-03-08T04:43:50;18.70;45.60
909;DHT22;441;51.192;6.788;2023-03-08T04:46:19;18.70;45.60
909;DHT22;441;51.192;6.788;2023-03-08T04:48:46;18.70;45.60
909;DHT22;441;51.192;6.788;2023-03-08T04:51:14;18.70;45.60
909;DHT22;441;51.192;6.788;2023-03-08T04:53:41;18.60;45.50
909;DHT22;441;51.192;6.788;2023-03-08T04:56:10;18.60;45.50
909;DHT22;441;51.192;6.788;2023-03-08T04:58:39;18.60;45.50
909;DHT22;441;51.192;6.788;2023-03-08T05:01:11;18.60;45.50
909;DHT22;441;51.192;6.788;2023-03-08T05:03:38;18.60;45.50
909;DHT22;441;51.192;6.788;2023-03-08T05:06:05;18.60;45.50
909;DHT22;441;51.192;6.788;2023-03-08T05:08:32;18.60;45.50
909;DHT22;441;51.192;6.788;2023-03-08T05:11:00;18.60;45.50
909;DHT22;441;51.192;6.788;2023-03-08T05:13:29;18.60;45.50
909;DHT22;441;51.192;6.788;2023-03-08T05:15:57;18.60;45.50
909;DHT22;441;51.192;6.788;2023-03-08T05:18:24;18.60;45.40
909;DHT22;441;51.192;6.788;2023-03-08T05:20:55;18.60;45.50
909;DHT22;441;51.192;6.788;2023-03-08T05:23:23;18.60;45.50
909;DHT22;441;51.192;6.788;2023-03-08T05:25:54;18.60;45.60
909;DHT22;441;51.192;6.788;2023-03-08T05:28:22;18.60;45.60
909;DHT22;441;51.192;6.788;2023-03-08T05:30:49;18.50;45.50
909;DHT22;441;51.192;6.788;2023-03-08T05:33:17;18.50;45.40
909;DHT22;441;51.192;6.788;2023-03-08T05:35:51;18.50;45.40
909;DHT22;441;51.192;6.788;2023-03-08T05:38:19;18.50;45.40
909;DHT22;441;51.192;6.788;2023-03-08T05:40:46;18.50;45.30
909;DHT22;441;51.192;6.788;2023-03-08T05:43:13;18.50;45.40
909;DHT22;441;51.192;6.788;2023-03-08T05:45:39;18.50;45.50
909;DHT22;441;51.192;6.788;2023-03-08T05:48:06;18.50;45.50
909;DHT22;441;51.192;6.788;2023-03-08T05:50:36;18.50;45.60
909;DHT22;441;51.192;6.788;2023-03-08T05:53:02;18.50;46.20
909;DHT22;441;51.192;6.788;2023-03-08T05:55:29;18.50;47.20
909;DHT22;441;51.192;6.788;2023-03-08T05:57:56;18.50;48.10
909;DHT22;441;51.192;6.788;2023-03-08T06:00:24;18.50;49.30
909;DHT22;441;51.192;6.788;2023-03-08T06:02:51;18.50;49.70
909;DHT22;441;51.192;6.788;2023-03-08T06:05:18;18.50;49.60
909;DHT22;441;51.192;6.788;2023-03-08T06:07:46;18.50;49.40
909;DHT22;441;51.192;6.788;2023-03-08T06:10:13;18.50;49.30
909;DHT22;441;51.192;6.788;2023-03-08T06:12:40;18.50;49.10
909;DHT22;441;51.192;6.788;2023-03-08T06:15:07;18.50;48.90
909;DHT22;441;51.192;6.788;2023-03-08T06:17:34;18.50;48.80
909;DHT22;441;51.192;6.788;2023-03-08T06:20:01;18.50;48.70
909;DHT22;441;51.192;6.788;2023-03-08T06:22:28;18.50;48.50
909;DHT22;441;51.192;6.788;2023-03-08T06:24:56;18.50;48.50
909;DHT22;441;51.192;6.788;2023-03-08T06:27:23;18.50;48.30
909;DHT22;441;51.192;6.788;2023-03-08T06:29:50;18.50;48.20
909;DHT22;441;51.192;6.788;2023-03-08T06:32:17;18.50;48.10
909;DHT22;441;51.192;6.788;2023-03-08T06:34:44;18.50;48.00
909;DHT22;441;51.192;6.788;2023-03-08T06:37:12;18.50;47.90
909;DHT22;441;51.192;6.788;2023-03-08T06:39:39;18.50;47.90
909;DHT22;441;51.192;6.788;2023-03-08T06:42:07;18.50;47.80
909;DHT22;441;51.192;6.788;2023-03-08T06:44:34;18.50;47.70
909;DHT22;441;51.192;6.788;2023-03-08T06:47:01;18.50;47.60
909;DHT22;441;51.192;6.788;2023-03-08T06:49:28;18.50;47.50
909;DHT22;441;51.192;6.788;2023-03-08T06:51:55;18.40;47.30
909;DHT22;441;51.192;6.788;2023-03-08T06:54:21;18.40;47.30
909;DHT22;441;51.192;6.788;2023-03-08T06:56:48;18.50;47.30
909;DHT22;441;51.192;6.788;2023-03-08T06:59:17;18.40;47.20
909;DHT22;441;51.192;6.788;2023-03-08T07:01:44;18.40;47.10
909;DHT22;441;51.192;6.788;2023-03-08T07:04:10;18.40;47.10
909;DHT22;441;51.192;6.788;2023-03-08T07:06:37;18.40;47.10
909;DHT22;441;51.192;6.788;2023-03-08T07:09:04;18.40;47.00
909;DHT22;441;51.192;6.788;2023-03-08T07:11:31;18.40;47.00
909;DHT22;441;51.192;6.788;2023-03-08T07:13:58;18.40;46.90
909;DHT22;441;51.192;6.788;2023-03-08T07:16:27;18.40;46.90
909;DHT22;441;51.192;6.788;2023-03-08T07:18:54;18.40;46.90
909;DHT22;441;51.192;6.788;2023-03-08T07:21:21;18.40;46.80
909;DHT22;441;51.192;6.788;2023-03-08T07:23:50;18.40;46.80
909;DHT22;441;51.192;6.788;2023-03-08T07:26:18;18.40;46.70
909;DHT22;441;51.192;6.788;2023-03-08T07:28:47;18.40;48.20
909;DHT22;441;51.192;6.788;2023-03-08T07:31:16;18.40;48.50
909;DHT22;441;51.192;6.788;2023-03-08T07:33:44;18.50;48.10
909;DHT22;441;51.192;6.788;2023-03-08T07:36:11;18.50;47.60
909;DHT22;441;51.192;6.788;2023-03-08T07:38:40;18.60;47.90
909;DHT22;441;51.192;6.788;2023-03-08T07:41:07;18.70;48.00
909;DHT22;441;51.192;6.788;2023-03-08T07:43:34;18.80;48.40
909;DHT22;441;51.192;6.788;2023-03-08T07:46:01;18.90;48.80
909;DHT22;441;51.192;6.788;2023-03-08T07:48:29;19.00;48.50
909;DHT22;441;51.192;6.788;2023-03-08T07:51:01;19.10;48.50
909;DHT22;441;51.192;6.788;2023-03-08T07:53:31;19.20;48.50
909;DHT22;441;51.192;6.788;2023-03-08T07:55:58;19.30;48.40
909;DHT22;441;51.192;6.788;2023-03-08T07:58:26;19.40;48.30
909;DHT22;441;51.192;6.788;2023-03-08T08:00:53;19.40;48.10
909;DHT22;441;51.192;6.788;2023-03-08T08:03:20;19.40;48.00
909;DHT22;441;51.192;6.788;2023-03-08T08:05:47;19.50;47.90
909;DHT22;441;51.192;6.788;2023-03-08T08:08:16;19.60;47.80
909;DHT22;441;51.192;6.788;2023-03-08T08:10:43;19.60;47.60
909;DHT22;441;51.192;6.788;2023-03-08T08:13:10;19.60;47.50
909;DHT22;441;51.192;6.788;2023-03-08T08:15:37;19.70;47.30
909;DHT22;441;51.192;6.788;2023-03-08T08:18:04;19.70;47.30
909;DHT22;441;51.192;6.788;2023-03-08T08:20:31;19.70;47.10
909;DHT22;441;51.192;6.788;2023-03-08T08:22:58;19.80;47.10
909;DHT22;441;51.192;6.788;2023-03-08T08:25:26;19.80;47.00
909;DHT22;441;51.192;6.788;2023-03-08T08:27:53;19.80;46.80
909;DHT22;441;51.192;6.788;2023-03-08T08:30:20;19.90;46.80
909;DHT22;441;51.192;6.788;2023-03-08T08:32:47;19.90;46.70
909;DHT22;441;51.192;6.788;2023-03-08T08:35:14;19.90;46.50
909;DHT22;441;51.192;6.788;2023-03-08T08:37:41;19.90;46.50
909;DHT22;441;51.192;6.788;2023-03-08T08:40:08;19.90;46.40
909;DHT22;441;51.192;6.788;2023-03-08T08:42:38;19.90;46.30
909;DHT22;441;51.192;6.788;2023-03-08T08:45:06;20.00;46.30
909;DHT22;441;51.192;6.788;2023-03-08T08:47:33;20.00;46.20
909;DHT22;441;51.192;6.788;2023-03-08T08:50:00;19.90;46.10
909;DHT22;441;51.192;6.788;2023-03-08T08:52:27;19.90;46.10
909;DHT22;441;51.192;6.788;2023-03-08T08:54:54;19.90;46.00
909;DHT22;441;51.192;6.788;2023-03-08T08:57:22;20.00;46.00
909;DHT22;441;51.192;6.788;2023-03-08T08:59:50;20.00;45.90
909;DHT22;441;51.192;6.788;2023-03-08T09:02:17;20.00;45.90
909;DHT22;441;51.192;6.788;2023-03-08T09:04:44;20.00;45.80
909;DHT22;441;51.192;6.788;2023-03-08T09:07:11;19.90;45.70
909;DHT22;441;51.192;6.788;2023-03-08T09:09:38;20.00;45.80
909;DHT22;441;51.192;6.788;2023-03-08T09:12:05;19.90;45.60
909;DHT22;441;51.192;6.788;2023-03-08T09:14:33;19.90;45.60
909;DHT22;441;51.192;6.788;2023-03-08T09:17:03;19.90;45.60
909;DHT22;441;51.192;6.788;2023-03-08T09:19:31;19.90;45.60
909;DHT22;441;51.192;6.788;2023-03-08T09:21:57;19.90;45.50
909;DHT22;441;51.192;6.788;2023-03-08T09:24:24;19.90;45.50
909;DHT22;441;51.192;6.788;2023-03-08T09:26:51;19.80;45.40
909;DHT22;441;51.192;6.788;2023-03-08T09:29:18;19.80;45.40
909;DHT22;441;51.192;6.788;2023-03-08T09:31:45;19.80;45.40
909;DHT22;441;51.192;6.788;2023-03-08T09:34:14;19.90;45.40
909;DHT22;441;51.192;6.788;2023-03-08T09:36:41;19.80;45.30
909;DHT22;441;51.192;6.788;2023-03-08T09:39:09;19.80;45.40
909;DHT22;441;51.192;6.788;2023-03-08T09:41:48;19.80;45.30
909;DHT22;441;51.192;6.788;2023-03-08T09:44:38;19.80;45.30
909;DHT22;441;51.192;6.788;2023-03-08T09:47:16;19.70;45.20
909;DHT22;441;51.192;6.788;2023-03-08T09:49:50;19.70;45.20
909;DHT22;441;51.192;6.788;2023-03-08T09:52:23;19.70;45.20
909;DHT22;441;51.192;6.788;2023-03-08T09:54:52;19.70;45.20
909;DHT22;441;51.192;6.788;2023-03-08T09:57:23;19.70;45.20
909;DHT22;441;51.192;6.788;2023-03-08T09:59:53;19.60;45.20
909;DHT22;441;51.192;6.788;2023-03-08T10:02:29;19.70;45.20
909;DHT22;441;51.192;6.788;2023-03-08T10:05:05;19.60;45.20
909;DHT22;441;51.192;6.788;2023-03-08T10:07:43;19.60;45.20
909;DHT22;441;51.192;6.788;2023-03-08T10:10:18;19.60;45.20
909;DHT22;441;51.192;6.788;2023-03-08T10:12:58;19.60;45.20
909;DHT22;441;51.192;6.788;2023-03-08T10:15:30;19.60;45.20
909;DHT22;441;51.192;6.788;2023-03-08T10:18:02;19.50;45.10
909;DHT22;441;51.192;6.788;2023-03-08T10:20:34;19.50;45.20
909;DHT22;441;51.192;6.788;2023-03-08T10:23:09;19.50;45.10
909;DHT22;441;51.192;6.788;2023-03-08T10:25:38;19.50;45.10
909;DHT22;441;51.192;6.788;2023-03-08T10:28:11;19.50;45.10
909;DHT22;441;51.192;6.788;2023-03-08T10:30:42;19.50;45.40
909;DHT22;441;51.192;6.788;2023-03-08T10:33:11;19.60;45.20
909;DHT22;441;51.192;6.788;2023-03-08T10:35:54;19.60;45.20
909;DHT22;441;51.192;6.788;2023-03-08T10:38:23;19.60;45.20
909;DHT22;441;51.192;6.788;2023-03-08T10:40:59;19.60;45.10
909;DHT22;441;51.192;6.788;2023-03-08T10:43:28;19.60;45.10
909;DHT22;441;51.192;6.788;2023-03-08T10:46:00;19.60;45.10
909;DHT22;441;51.192;6.788;2023-03-08T10:48:27;19.60;45.10
909;DHT22;441;51.192;6.788;2023-03-08T10:51:00;19.60;45.10
909;DHT22;441;51.192;6.788;2023-03-08T10:53:27;19.60;45.10
909;DHT22;441;51.192;6.788;2023-03-08T10:55:56;19.60;45.00
909;DHT22;441;51.192;6.788;2023-03-08T10:58:30;19.60;45.00
909;DHT22;441;51.192;6.788;2023-03-08T11:00:59;19.60;45.00
909;DHT22;441;51.192;6.788;2023-03-08T11:03:26;19.60;45.00
909;DHT22;441;51.192;6.788;2023-03-08T11:05:56;19.60;45.00
909;DHT22;441;51.192;6.788;2023-03-08T11:08:26;19.50;44.90
909;DHT22;441;51.192;6.788;2023-03-08T11:11:01;19.60;45.00
909;DHT22;441;51.192;6.788;2023-03-08T11:13:30;19.50;44.90
909;DHT22;441;51.192;6.788;2023-03-08T11:16:14;19.50;44.90
909;DHT22;441;51.192;6.788;2023-03-08T11:18:49;19.50;44.90
909;DHT22;441;51.192;6.788;2023-03-08T11:21:23;19.50;44.90
909;DHT22;441;51.192;6.788;2023-03-08T11:24:00;19.50;44.90
909;DHT22;441;51.192;6.788;2023-03-08T11:26:35;19.50;44.90
909;DHT22;441;51.192;6.788;2023-03-08T11:29:13;19.40;44.90
909;DHT22;441;51.192;6.788;2023-03-08T11:31:49;19.50;44.90
909;DHT22;441;51.192;6.788;2023-03-08T11:34:44;19.40;44.90
909;DHT22;441;51.192;6.788;2023-03-08T11:37:16;19.40;44.90
909;DHT22;441;51.192;6.788;2023-03-08T11:39:50;19.40;44.90
909;DHT22;441;51.192;6.788;2023-03-08T11:42:24;19.40;44.90
909;DHT22;441;51.192;6.788;2023-03-08T11:45:07;19.40;44.90
909;DHT22;441;51.192;6.788;2023-03-08T11:47:55;19.40;44.90
909;DHT22;441;51.192;6.788;2023-03-08T11:50:27;19.40;44.90
909;DHT22;441;51.192;6.788;2023-03-08T11:53:02;19.40;44.90
909;DHT22;441;51.192;6.788;2023-03-08T11:55:49;19.40;44.90
909;DHT22;441;51.192;6.788;2023-03-08T11:58:25;19.40;44.90
909;DHT22;441;51.192;6.788;2023-03-08T12:00:55;19.40;45.40
909;DHT22;441;51.192;6.788;2023-03-08T12:03:28;19.30;44.80
909;DHT22;441;51.192;6.788;2023-03-08T12:05:58;19.30;44.80
909;DHT22;441;51.192;6.788;2023-03-08T12:08:28;19.30;44.80
909;DHT22;441;51.192;6.788;2023-03-08T12:11:02;19.30;44.80
909;DHT22;441;51.192;6.788;2023-03-08T12:13:32;19.30;44.80
909;DHT22;441;51.192;6.788;2023-03-08T12:16:07;19.40;44.90
909;DHT22;441;51.192;6.788;2023-03-08T12:18:39;19.40;44.90
909;DHT22;441;51.192;6.788;2023-03-08T12:21:17;19.40;44.90
909;DHT22;441;51.192;6.788;2023-03-08T12:23:56;19.40;44.80
909;DHT22;441;51.192;6.788;2023-03-08T12:26:28;19.40;44.80
909;DHT22;441;51.192;6.788;2023-03-08T12:29:01;19.40;44.80
909;DHT22;441;51.192;6.788;2023-03-08T12:31:30;19.40;44.80
909;DHT22;441;51.192;6.788;2023-03-08T12:33:59;19.40;44.80
909;DHT22;441;51.192;6.788;2023-03-08T12:36:37;19.40;44.80
909;DHT22;441;51.192;6.788;2023-03-08T12:39:06;19.50;44.90
909;DHT22;441;51.192;6.788;2023-03-08T12:41:35;19.40;44.80
909;DHT22;441;51.192;6.788;2023-03-08T12:44:04;19.40;44.70
909;DHT22;441;51.192;6.788;2023-03-08T12:46:49;19.40;44.70
909;DHT22;441;51.192;6.788;2023-03-08T12:49:19;19.40;44.70
909;DHT22;441;51.192;6.788;2023-03-08T12:51:55;19.40;44.70
909;DHT22;441;51.192;6.788;2023-03-08T12:54:23;19.40;44.70
909;DHT22;441;51.192;6.788;2023-03-08T12:56:53;19.40;44.70
909;DHT22;441;51.192;6.788;2023-03-08T12:59:36;19.40;44.70
909;DHT22;441;51.192;6.788;2023-03-08T13:02:28;19.40;44.70
909;DHT22;441;51.192;6.788;2023-03-08T13:05:16;19.40;44.80
909;DHT22;441;51.192;6.788;2023-03-08T13:07:54;19.40;44.70
909;DHT22;441;51.192;6.788;2023-03-08T13:10:26;19.40;44.80
909;DHT22;441;51.192;6.788;2023-03-08T13:15:47;19.30;44.70
909;DHT22;441;51.192;6.788;2023-03-08T13:18:16;19.30;44.70
909;DHT22;441;51.192;6.788;2023-03-08T13:21:11;19.30;44.70
909;DHT22;441;51.192;6.788;2023-03-08T13:23:45;19.30;44.70
909;DHT22;441;51.192;6.788;2023-03-08T13:29:14;19.30;44.70
909;DHT22;441;51.192;6.788;2023-03-08T13:31:42;19.30;44.70
909;DHT22;441;51.192;6.788;2023-03-08T13:34:24;19.30;44.70
909;DHT22;441;51.192;6.788;2023-03-08T13:36:51;19.30;44.70
909;DHT22;441;51.192;6.788;2023-03-08T13:39:21;19.30;44.70
909;DHT22;441;51.192;6.788;2023-03-08T13:41:48;19.30;44.70
909;DHT22;441;51.192;6.788;2023-03-08T13:44:20;19.20;44.60
909;DHT22;441;51.192;6.788;2023-03-08T13:46:49;19.30;44.70
909;DHT22;441;51.192;6.788;2023-03-08T13:49:19;19.30;44.70
909;DHT22;441;51.192;6.788;2023-03-08T13:51:50;19.30;44.70
909;DHT22;441;51.192;6.788;2023-03-08T13:54:28;19.20;44.70
909;DHT22;441;51.192;6.788;2023-03-08T13:56:56;19.20;44.70
909;DHT22;441;51.192;6.788;2023-03-08T13:59:26;19.20;44.60
909;DHT22;441;51.192;6.788;2023-03-08T14:01:53;19.30;44.70
909;DHT22;441;51.192;6.788;2023-03-08T14:04:22;19.30;44.70
909;DHT22;441;51.192;6.788;2023-03-08T14:06:51;19.30;44.70
909;DHT22;441;51.192;6.788;2023-03-08T14:09:18;19.30;44.70
909;DHT22;441;51.192;6.788;2023-03-08T14:11:52;19.40;44.80
909;DHT22;441;51.192;6.788;2023-03-08T14:14:28;19.40;44.70
909;DHT22;441;51.192;6.788;2023-03-08T14:16:56;19.40;44.70
909;DHT22;441;51.192;6.788;2023-03-08T14:19:24;19.40;44.70
909;DHT22;441;51.192;6.788;2023-03-08T14:21:54;19.40;44.70
909;DHT22;441;51.192;6.788;2023-03-08T14:24:23;19.40;44.70
909;DHT22;441;51.192;6.788;2023-03-08T14:26:55;19.40;44.70
909;DHT22;441;51.192;6.788;2023-03-08T14:29:26;19.40;44.60
909;DHT22;441;51.192;6.788;2023-03-08T14:32:03;19.40;44.60
909;DHT22;441;51.192;6.788;2023-03-08T14:34:32;19.40;44.60
909;DHT22;441;51.192;6.788;2023-03-08T14:37:05;19.40;44.60
909;DHT22;441;51.192;6.788;2023-03-08T14:39:34;19.40;44.60
909;DHT22;441;51.192;6.788;2023-03-08T14:42:10;19.40;44.60
909;DHT22;441;51.192;6.788;2023-03-08T14:44:49;19.40;44.60
909;DHT22;441;51.192;6.788;2023-03-08T14:47:21;19.40;44.60
909;DHT22;441;51.192;6.788;2023-03-08T14:49:58;19.40;44.60
909;DHT22;441;51.192;6.788;2023-03-08T14:52:27;19.40;44.50
909;DHT22;441;51.192;6.788;2023-03-08T14:54:54;19.30;43.90
909;DHT22;441;51.192;6.788;2023-03-08T14:57:23;19.20;43.70
909;DHT22;441;51.192;6.788;2023-03-08T15:00:04;19.20;43.80
909;DHT22;441;51.192;6.788;2023-03-08T15:02:32;19.10;43.50
909;DHT22;441;51.192;6.788;2023-03-08T15:04:59;19.00;43.60
909;DHT22;441;51.192;6.788;2023-03-08T15:07:30;19.00;43.80
909;DHT22;441;51.192;6.788;2023-03-08T15:10:02;19.00;43.90
909;DHT22;441;51.192;6.788;2023-03-08T15:12:29;19.00;43.90
909;DHT22;441;51.192;6.788;2023-03-08T15:14:57;19.00;43.90
909;DHT22;441;51.192;6.788;2023-03-08T15:17:24;18.90;43.90
909;DHT22;441;51.192;6.788;2023-03-08T15:19:51;18.90;44.00
909;DHT22;441;51.192;6.788;2023-03-08T15:22:18;18.90;44.00
909;DHT22;441;51.192;6.788;2023-03-08T15:24:45;18.90;44.10
909;DHT22;441;51.192;6.788;2023-03-08T15:27:13;18.80;44.00
909;DHT22;441;51.192;6.788;2023-03-08T15:29:41;18.80;44.10
909;DHT22;441;51.192;6.788;2023-03-08T15:32:09;18.90;44.30
909;DHT22;441;51.192;6.788;2023-03-08T15:34:36;18.90;44.70
909;DHT22;441;51.192;6.788;2023-03-08T15:37:04;19.00;44.80
909;DHT22;441;51.192;6.788;2023-03-08T15:39:31;19.00;44.70
909;DHT22;441;51.192;6.788;2023-03-08T15:41:58;19.10;44.50
909;DHT22;441;51.192;6.788;2023-03-08T15:44:25;19.30;44.40
909;DHT22;441;51.192;6.788;2023-03-08T15:46:52;19.40;44.20
909;DHT22;441;51.192;6.788;2023-03-08T15:49:20;19.40;44.00
909;DHT22;441;51.192;6.788;2023-03-08T15:51:47;19.40;43.90
909;DHT22;441;51.192;6.788;2023-03-08T15:54:14;19.40;43.80
909;DHT22;441;51.192;6.788;2023-03-08T15:56:41;19.40;43.80
909;DHT22;441;51.192;6.788;2023-03-08T15:59:08;19.50;43.80
909;DHT22;441;51.192;6.788;2023-03-08T16:01:34;19.50;43.80
909;DHT22;441;51.192;6.788;2023-03-08T16:04:01;19.60;43.80
909;DHT22;441;51.192;6.788;2023-03-08T16:06:30;19.60;43.70
909;DHT22;441;51.192;6.788;2023-03-08T16:08:57;19.60;43.70
909;DHT22;441;51.192;6.788;2023-03-08T16:11:23;19.70;43.70
909;DHT22;441;51.192;6.788;2023-03-08T16:13:51;19.70;43.70
909;DHT22;441;51.192;6.788;2023-03-08T16:16:19;19.70;43.60
909;DHT22;441;51.192;6.788;2023-03-08T16:18:46;19.70;43.60
909;DHT22;441;51.192;6.788;2023-03-08T16:21:14;19.70;43.60
909;DHT22;441;51.192;6.788;2023-03-08T16:23:43;19.80;43.70
909;DHT22;441;51.192;6.788;2023-03-08T16:26:12;19.70;43.70
909;DHT22;441;51.192;6.788;2023-03-08T16:28:40;19.70;43.80
909;DHT22;441;51.192;6.788;2023-03-08T16:31:08;19.80;43.90
909;DHT22;441;51.192;6.788;2023-03-08T16:33:35;19.80;43.90
909;DHT22;441;51.192;6.788;2023-03-08T16:36:02;19.70;43.80
909;DHT22;441;51.192;6.788;2023-03-08T16:38:29;19.80;43.70
909;DHT22;441;51.192;6.788;2023-03-08T16:41:00;19.80;43.50
909;DHT22;441;51.192;6.788;2023-03-08T16:43:30;19.80;43.50
909;DHT22;441;51.192;6.788;2023-03-08T16:45:58;19.90;43.50
909;DHT22;441;51.192;6.788;2023-03-08T16:48:26;19.90;43.60
909;DHT22;441;51.192;6.788;2023-03-08T16:50:57;20.10;43.90
909;DHT22;441;51.192;6.788;2023-03-08T16:53:25;20.20;43.80